createdAt,value
2022-10-13T00:01:01.823Z,13.32
2022-10-13T00:03:35.371Z,13.88
2022-10-13T00:06:11.122Z,16.42
2022-10-13T00:08:44.625Z,11.48
2022-10-13T00:11:20.256Z,12.00
2022-10-13T00:13:57.359Z,19.17
2022-10-13T00:16:33.042Z,13.25
2022-10-13T00:19:06.542Z,13.63
2022-10-13T00:21:40.251Z,16.83
2022-10-13T00:24:13.862Z,14.95
2022-10-13T00:26:47.634Z,21.05
2022-10-13T00:29:21.305Z,21.48
2022-10-13T00:31:56.369Z,11.10
2022-10-13T00:34:29.939Z,15.52
2022-10-13T00:37:03.951Z,15.05
2022-10-13T00:39:38.197Z,14.55
2022-10-13T00:42:14.008Z,14.55
2022-10-13T00:45:01.088Z,22.02
2022-10-13T00:47:41.365Z,12.15
2022-10-13T00:50:18.368Z,13.43
2022-10-13T00:52:55.335Z,15.95
2022-10-13T00:55:33.166Z,17.67
2022-10-13T00:58:11.410Z,12.73
2022-10-13T01:00:47.908Z,13.90
2022-10-13T01:03:23.484Z,13.45
2022-10-13T01:05:59.870Z,15.25
2022-10-13T01:08:34.351Z,14.73
2022-10-13T01:11:25.768Z,8.73
2022-10-13T01:14:09.135Z,17.77
2022-10-13T01:16:51.250Z,15.50
2022-10-13T01:19:52.223Z,18.73
2022-10-13T01:22:45.328Z,13.60
2022-10-13T01:25:35.043Z,12.80
2022-10-13T01:28:31.875Z,10.77
2022-10-13T01:31:16.959Z,14.32
2022-10-13T01:33:58.149Z,10.32
2022-10-13T01:36:38.928Z,18.30
2022-10-13T01:39:24.393Z,8.80
2022-10-13T01:42:11.299Z,17.30
2022-10-13T01:44:51.813Z,8.95
2022-10-13T01:47:28.195Z,16.45
2022-10-13T01:50:03.761Z,10.35
2022-10-13T01:52:40.395Z,15.57
2022-10-13T01:55:14.776Z,14.73
2022-10-13T01:57:48.500Z,11.88
2022-10-13T02:00:23.276Z,19.20
2022-10-13T02:03:10.571Z,12.32
2022-10-13T02:05:49.996Z,11.77
2022-10-13T02:08:31.988Z,13.07
2022-10-13T02:11:14.389Z,9.65
2022-10-13T02:13:58.489Z,13.48
2022-10-13T02:16:35.586Z,12.15
2022-10-13T02:19:13.585Z,18.63
2022-10-13T02:21:48.030Z,14.10
2022-10-13T02:24:21.757Z,14.18
2022-10-13T02:26:55.555Z,21.50
2022-10-13T02:29:29.307Z,14.50
2022-10-13T02:32:03.082Z,15.40
2022-10-13T02:34:38.179Z,14.32
2022-10-13T02:37:11.923Z,24.42
2022-10-13T02:39:45.632Z,15.00
2022-10-13T02:42:19.489Z,12.80
2022-10-13T02:44:53.620Z,15.30
2022-10-13T02:47:27.265Z,16.67
2022-10-13T02:50:02.422Z,14.55
2022-10-13T02:52:36.107Z,13.05
2022-10-13T02:55:10.188Z,18.58
2022-10-13T02:57:43.723Z,13.75
2022-10-13T03:00:17.911Z,14.75
2022-10-13T03:02:51.572Z,15.23
2022-10-13T03:05:26.646Z,10.27
2022-10-13T03:08:00.298Z,10.45
2022-10-13T03:10:33.974Z,12.80
2022-10-13T03:13:07.453Z,12.73
2022-10-13T03:15:41.117Z,12.50
2022-10-13T03:18:14.825Z,13.57
2022-10-13T03:20:58.626Z,11.43
2022-10-13T03:23:32.938Z,10.63
2022-10-13T03:26:06.989Z,8.93
2022-10-13T03:28:40.736Z,15.68
2022-10-13T03:31:14.432Z,12.70
2022-10-13T03:33:48.155Z,13.90
2022-10-13T03:36:23.304Z,14.85
2022-10-13T03:38:56.795Z,16.33
2022-10-13T03:41:30.586Z,10.98
2022-10-13T03:44:04.319Z,12.68
2022-10-13T03:46:37.989Z,10.95
2022-10-13T03:49:12.208Z,14.85
2022-10-13T03:51:47.435Z,15.60
2022-10-13T03:54:20.899Z,17.15
2022-10-13T03:56:54.625Z,13.30
2022-10-13T03:59:34.152Z,14.85
2022-10-13T04:02:10.296Z,15.00
2022-10-13T04:04:43.825Z,8.95
2022-10-13T04:07:18.939Z,10.52
2022-10-13T04:09:52.551Z,14.05
2022-10-13T04:12:26.452Z,11.75
2022-10-13T04:15:00.350Z,13.55
2022-10-13T04:17:34.074Z,15.00
2022-10-13T04:20:09.253Z,14.52
2022-10-13T04:22:44.379Z,13.85
2022-10-13T04:25:18.021Z,12.68
2022-10-13T04:27:51.798Z,22.83
2022-10-13T04:30:25.519Z,15.93
2022-10-13T04:32:59.274Z,17.67
2022-10-13T04:35:32.912Z,16.63
2022-10-13T04:38:08.378Z,16.92
2022-10-13T04:40:41.900Z,14.07
2022-10-13T04:43:15.864Z,13.05
2022-10-13T04:45:49.437Z,15.43
2022-10-13T04:48:23.233Z,13.35
2022-10-13T04:51:01.458Z,14.80
2022-10-13T04:53:36.899Z,16.33
2022-10-13T04:56:14.488Z,11.15
2022-10-13T04:58:48.281Z,19.00
2022-10-13T05:01:24.396Z,16.83
2022-10-13T05:04:00.440Z,16.80
2022-10-13T05:06:48.600Z,18.55
2022-10-13T05:09:32.315Z,23.33
2022-10-13T05:12:06.194Z,9.95
2022-10-13T05:14:39.896Z,18.00
2022-10-13T05:17:13.311Z,14.05
2022-10-13T05:19:47.218Z,13.98
2022-10-13T05:22:21.428Z,17.35
2022-10-13T05:24:56.844Z,15.93
2022-10-13T05:27:30.353Z,15.50
2022-10-13T05:30:04.110Z,19.45
2022-10-13T05:32:37.809Z,18.35
2022-10-13T05:35:11.473Z,20.92
2022-10-13T05:37:45.188Z,18.40
2022-10-13T05:40:21.312Z,17.90
2022-10-13T05:42:54.937Z,18.95
2022-10-13T05:45:30.600Z,14.38
2022-10-13T05:48:04.202Z,18.08
2022-10-13T05:50:38.003Z,18.42
2022-10-13T05:53:11.591Z,23.10
2022-10-13T05:55:46.939Z,16.73
2022-10-13T05:58:20.717Z,16.23
2022-10-13T06:00:55.268Z,22.70
2022-10-13T06:03:29.913Z,16.52
2022-10-13T06:06:03.905Z,16.95
2022-10-13T06:08:38.455Z,17.40
2022-10-13T06:11:13.603Z,21.40
2022-10-13T06:13:47.084Z,20.88
2022-10-13T06:16:20.759Z,16.23
2022-10-13T06:18:54.255Z,19.48
2022-10-13T06:21:28.215Z,17.40
2022-10-13T06:24:01.786Z,16.23
2022-10-13T06:26:36.789Z,18.02
2022-10-13T06:29:10.395Z,16.20
2022-10-13T06:31:44.177Z,16.20
2022-10-13T06:34:17.693Z,16.15
2022-10-13T06:36:51.379Z,18.33
2022-10-13T06:39:24.974Z,16.88
2022-10-13T06:42:00.090Z,12.90
2022-10-13T06:44:33.758Z,17.05
2022-10-13T06:47:07.790Z,21.85
2022-10-13T06:49:41.268Z,25.05
2022-10-13T06:52:15.008Z,14.63
2022-10-13T06:54:48.510Z,18.70
2022-10-13T06:57:23.546Z,16.17
2022-10-13T06:59:57.298Z,13.80
2022-10-13T07:02:31.051Z,27.45
2022-10-13T07:05:05.077Z,16.23
2022-10-13T07:07:39.054Z,17.75
2022-10-13T07:10:12.585Z,28.63
2022-10-13T07:12:47.814Z,19.88
2022-10-13T07:15:21.563Z,15.55
2022-10-13T07:17:55.431Z,17.95
2022-10-13T07:20:29.137Z,15.18
2022-10-13T07:23:04.544Z,23.58
2022-10-13T07:25:39.887Z,17.60
2022-10-13T07:28:16.218Z,16.98
2022-10-13T07:30:50.138Z,15.85
2022-10-13T07:33:23.907Z,17.38
2022-10-13T07:35:59.847Z,23.25
2022-10-13T07:38:33.713Z,19.77
2022-10-13T07:41:09.231Z,19.60
2022-10-13T07:43:44.463Z,17.17
2022-10-13T07:46:17.993Z,22.55
2022-10-13T07:48:53.155Z,18.70
2022-10-13T07:51:26.727Z,18.67
2022-10-13T07:54:00.582Z,18.83
2022-10-13T07:56:34.381Z,18.30
2022-10-13T07:59:09.440Z,16.73
2022-10-13T08:01:43.017Z,23.65
2022-10-13T08:04:16.995Z,19.38
2022-10-13T08:06:50.612Z,19.42
2022-10-13T08:09:24.273Z,23.48
2022-10-13T08:12:00.740Z,20.63
2022-10-13T08:14:37.028Z,26.23
2022-10-13T08:17:10.942Z,25.23
2022-10-13T08:19:44.707Z,23.52
2022-10-13T08:22:18.280Z,20.92
2022-10-13T08:24:52.288Z,22.42
2022-10-13T08:27:42.254Z,23.80
2022-10-13T08:30:22.246Z,21.75
2022-10-13T08:32:56.103Z,21.25
2022-10-13T08:35:34.886Z,20.60
2022-10-13T08:38:08.645Z,30.75
2022-10-13T08:40:48.143Z,20.27
2022-10-13T08:43:25.499Z,26.05
2022-10-13T08:46:01.985Z,18.77
2022-10-13T08:48:41.523Z,18.52
2022-10-13T08:51:17.072Z,17.83
2022-10-13T08:53:51.046Z,24.88
2022-10-13T08:56:27.729Z,18.45
2022-10-13T08:59:03.608Z,19.00
2022-10-13T09:01:39.207Z,21.58
2022-10-13T09:04:27.018Z,18.25
2022-10-13T09:07:06.008Z,21.00
2022-10-13T09:09:39.713Z,23.08
2022-10-13T09:12:15.643Z,23.92
2022-10-13T09:14:58.639Z,25.15
2022-10-13T09:17:35.475Z,25.55
2022-10-13T09:20:20.340Z,27.35
2022-10-13T09:23:03.607Z,25.50
2022-10-13T09:25:42.289Z,21.17
2022-10-13T09:28:20.239Z,24.85
2022-10-13T09:31:04.176Z,24.08
2022-10-13T09:33:39.382Z,26.77
2022-10-13T09:36:15.408Z,25.10
2022-10-13T09:39:08.391Z,22.75
2022-10-13T09:41:43.316Z,29.00
2022-10-13T09:44:24.311Z,21.42
2022-10-13T09:47:03.610Z,21.63
2022-10-13T09:49:41.314Z,27.58
2022-10-13T09:52:19.096Z,25.15
2022-10-13T09:54:54.758Z,28.45
2022-10-13T09:57:39.936Z,26.90
2022-10-13T10:00:21.379Z,27.85
2022-10-13T10:02:59.251Z,25.20
2022-10-13T10:05:42.101Z,23.98
2022-10-13T10:08:28.813Z,25.50
2022-10-13T10:11:14.154Z,26.55
2022-10-13T10:13:47.672Z,22.48
2022-10-13T10:16:30.236Z,26.83
2022-10-13T10:19:11.282Z,21.15
2022-10-13T10:21:51.807Z,27.55
2022-10-13T10:24:30.832Z,22.60
2022-10-13T10:27:07.894Z,27.48
2022-10-13T10:29:50.217Z,34.20
2022-10-13T10:32:30.490Z,25.70
2022-10-13T10:35:12.924Z,22.83
2022-10-13T10:38:06.339Z,22.67
2022-10-13T10:40:57.434Z,28.95
2022-10-13T10:43:44.376Z,36.85
2022-10-13T10:46:21.013Z,24.42
2022-10-13T10:48:59.917Z,29.35
2022-10-13T10:51:37.660Z,25.33
2022-10-13T10:54:26.893Z,22.00
2022-10-13T10:57:09.783Z,25.65
2022-10-13T10:59:59.992Z,24.25
2022-10-13T11:02:46.241Z,27.92
2022-10-13T11:05:20.576Z,26.95
2022-10-13T11:07:59.891Z,22.55
2022-10-13T11:10:33.806Z,25.90
2022-10-13T11:13:25.748Z,27.77
2022-10-13T11:16:19.515Z,20.58
2022-10-13T11:19:25.856Z,22.98
2022-10-13T11:22:16.493Z,25.52
2022-10-13T11:24:59.242Z,23.88
2022-10-13T11:27:42.599Z,27.52
2022-10-13T11:30:50.287Z,27.17
2022-10-13T11:33:52.596Z,27.05
2022-10-13T11:36:32.125Z,26.17
2022-10-13T11:39:40.052Z,29.05
2022-10-13T11:42:32.285Z,19.00
2022-10-13T11:45:19.759Z,26.67
2022-10-13T11:48:29.264Z,20.98
2022-10-13T11:51:16.581Z,24.42
2022-10-13T11:53:56.542Z,26.98
2022-10-13T11:56:39.531Z,24.05
2022-10-13T11:59:22.286Z,21.80
2022-10-13T12:01:58.162Z,22.70
2022-10-13T12:04:33.027Z,21.98
2022-10-13T12:07:09.829Z,22.65
2022-10-13T12:09:51.202Z,23.30
2022-10-13T12:12:26.041Z,24.33
2022-10-13T12:15:02.658Z,17.65
2022-10-13T12:17:39.896Z,23.58
2022-10-13T12:20:23.356Z,18.42
2022-10-13T12:22:58.173Z,20.83
2022-10-13T12:25:33.685Z,18.70
2022-10-13T12:28:07.534Z,18.48
2022-10-13T12:30:41.119Z,18.35
2022-10-13T12:33:23.986Z,22.25
2022-10-13T12:36:13.160Z,21.23
2022-10-13T12:38:50.683Z,21.77
2022-10-13T12:41:27.773Z,19.35
2022-10-13T12:44:05.607Z,17.40
2022-10-13T12:49:16.735Z,19.58
2022-10-13T12:51:55.318Z,17.73
2022-10-13T12:54:31.654Z,17.55
2022-10-13T12:57:08.438Z,29.38
2022-10-13T12:59:43.842Z,21.65
2022-10-13T13:02:24.006Z,20.77
2022-10-13T13:04:57.927Z,21.08
2022-10-13T13:07:34.536Z,24.83
2022-10-13T13:10:18.558Z,20.90
2022-10-13T13:12:58.118Z,16.67
2022-10-13T13:15:37.660Z,21.27
2022-10-13T13:18:30.471Z,20.92
2022-10-13T13:21:06.651Z,23.38
2022-10-13T13:23:41.676Z,19.00
2022-10-13T13:26:17.776Z,17.48
2022-10-13T13:28:53.954Z,22.63
2022-10-13T13:31:27.716Z,21.05
2022-10-13T13:34:01.488Z,24.63
2022-10-13T13:36:35.411Z,17.35
2022-10-13T13:39:15.681Z,21.92
2022-10-13T13:41:49.587Z,24.48
2022-10-13T13:44:23.079Z,17.85
2022-10-13T13:46:56.889Z,22.25
2022-10-13T13:49:30.483Z,22.20
2022-10-13T13:52:04.370Z,20.52
2022-10-13T13:54:39.526Z,17.52
2022-10-13T13:57:14.870Z,14.77
2022-10-13T13:59:48.435Z,22.13
2022-10-13T14:02:23.119Z,17.02
2022-10-13T14:04:56.774Z,18.42
2022-10-13T14:07:30.506Z,16.23
2022-10-13T14:10:07.149Z,20.52
2022-10-13T14:12:41.044Z,18.20
2022-10-13T14:15:14.611Z,22.15
2022-10-13T14:17:48.518Z,19.77
2022-10-13T14:20:22.994Z,19.13
2022-10-13T14:22:56.742Z,27.42
2022-10-13T14:25:33.281Z,22.88
2022-10-13T14:28:07.076Z,18.13
2022-10-13T14:30:41.134Z,19.90
2022-10-13T14:33:19.122Z,19.80
2022-10-13T14:36:00.643Z,18.23
2022-10-13T14:38:34.918Z,22.80
2022-10-13T14:41:10.592Z,15.35
2022-10-13T14:43:44.558Z,21.48
2022-10-13T14:46:18.118Z,16.75
2022-10-13T14:48:52.098Z,19.73
2022-10-13T14:51:26.092Z,19.10
2022-10-13T14:54:01.691Z,23.58
2022-10-13T14:56:36.798Z,20.05
2022-10-13T14:59:12.191Z,18.25
2022-10-13T15:01:46.601Z,21.60
2022-10-13T15:04:20.378Z,17.80
2022-10-13T15:06:53.965Z,18.40
2022-10-13T15:09:38.947Z,23.67
2022-10-13T15:12:24.313Z,22.13
2022-10-13T15:14:58.106Z,19.52
2022-10-13T15:17:33.177Z,19.95
2022-10-13T15:20:08.381Z,22.17
2022-10-13T15:22:41.985Z,18.52
2022-10-13T15:25:15.775Z,19.35
2022-10-13T15:27:50.700Z,23.73
2022-10-13T15:30:24.659Z,20.23
2022-10-13T15:32:58.405Z,16.58
2022-10-13T15:35:32.551Z,18.05
2022-10-13T15:38:06.321Z,22.50
2022-10-13T15:40:40.918Z,20.10
2022-10-13T15:43:16.922Z,16.65
2022-10-13T15:45:55.712Z,17.90
2022-10-13T15:48:29.400Z,27.73
2022-10-13T15:51:03.708Z,26.48
2022-10-13T15:53:37.451Z,27.85
2022-10-13T15:56:11.151Z,22.48
2022-10-13T15:58:46.626Z,19.42
2022-10-13T16:01:20.705Z,23.35
2022-10-13T16:03:55.436Z,22.92
2022-10-13T16:06:29.447Z,19.50
2022-10-13T16:09:03.386Z,24.58
2022-10-13T16:11:37.701Z,22.73
2022-10-13T16:14:12.545Z,27.08
2022-10-13T16:16:46.338Z,16.75
2022-10-13T16:19:19.859Z,28.00
2022-10-13T16:21:53.704Z,19.55
2022-10-13T16:24:27.308Z,21.30
2022-10-13T16:27:01.358Z,19.40
2022-10-13T16:29:36.260Z,20.35
2022-10-13T16:32:10.275Z,20.35
2022-10-13T16:34:43.741Z,15.90
2022-10-13T16:37:17.508Z,18.17
2022-10-13T16:39:52.066Z,16.65
2022-10-13T16:42:26.250Z,21.42
2022-10-13T16:45:01.252Z,21.63
2022-10-13T16:47:35.221Z,25.25
2022-10-13T16:50:10.285Z,28.08
2022-10-13T16:52:44.277Z,19.27
2022-10-13T16:55:18.239Z,23.35
2022-10-13T16:57:51.967Z,25.05
2022-10-13T17:00:26.980Z,22.65
2022-10-13T17:03:00.853Z,20.17
2022-10-13T17:05:34.704Z,27.63
2022-10-13T17:08:08.463Z,21.55
2022-10-13T17:10:42.097Z,19.98
2022-10-13T17:13:15.855Z,19.05
2022-10-13T17:15:54.920Z,27.05
2022-10-13T17:18:29.162Z,29.60
2022-10-13T17:21:08.249Z,27.48
2022-10-13T17:23:46.007Z,30.95
2022-10-13T17:26:22.278Z,32.33
2022-10-13T17:28:56.394Z,23.33
2022-10-13T17:31:31.698Z,23.05
2022-10-13T17:34:06.114Z,26.27
2022-10-13T17:36:39.805Z,31.90
2022-10-13T17:39:13.841Z,25.40
2022-10-13T17:41:47.400Z,24.70
2022-10-13T17:44:21.280Z,24.98
2022-10-13T17:46:56.442Z,23.80
2022-10-13T17:49:30.381Z,22.08
2022-10-13T17:52:04.339Z,20.17
2022-10-13T17:54:38.200Z,25.30
2022-10-13T17:57:11.868Z,24.77
2022-10-13T17:59:46.831Z,23.23
2022-10-13T18:02:22.348Z,25.10
2022-10-13T18:04:56.258Z,29.90
2022-10-13T18:07:30.018Z,27.35
2022-10-13T18:10:04.943Z,24.05
2022-10-13T18:12:38.797Z,23.25
2022-10-13T18:15:12.588Z,30.92
2022-10-13T18:17:47.785Z,31.48
2022-10-13T18:20:21.728Z,32.97
2022-10-13T18:22:55.250Z,28.33
2022-10-13T18:25:29.089Z,29.98
2022-10-13T18:28:03.166Z,29.60
2022-10-13T18:30:36.978Z,35.35
2022-10-13T18:33:11.908Z,33.10
2022-10-13T18:35:45.714Z,41.97
2022-10-13T18:38:20.074Z,36.45
2022-10-13T18:40:54.668Z,36.97
2022-10-13T18:43:28.316Z,34.35
2022-10-13T18:46:02.577Z,31.65
2022-10-13T18:48:38.039Z,28.65
2022-10-13T18:51:14.098Z,30.08
2022-10-13T18:53:50.481Z,32.83
2022-10-13T18:56:26.014Z,32.40
2022-10-13T18:59:01.472Z,27.90
2022-10-13T19:01:36.769Z,27.10
2022-10-13T19:04:14.649Z,32.20
2022-10-13T19:06:48.475Z,35.17
2022-10-13T19:09:24.173Z,26.38
2022-10-13T19:11:57.933Z,34.25
2022-10-13T19:14:31.525Z,33.17
2022-10-13T19:17:05.380Z,33.53
2022-10-13T19:19:41.413Z,38.65
2022-10-13T19:22:15.111Z,37.00
2022-10-13T19:24:48.704Z,33.25
2022-10-13T19:27:22.926Z,41.67
2022-10-13T19:29:56.931Z,38.25
2022-10-13T19:32:30.800Z,34.33
2022-10-13T19:35:05.898Z,34.92
2022-10-13T19:37:40.464Z,35.30
2022-10-13T19:40:14.253Z,31.98
2022-10-13T19:42:48.537Z,36.40
2022-10-13T19:45:22.154Z,35.38
2022-10-13T19:47:55.995Z,34.15
2022-10-13T19:50:33.935Z,40.47
2022-10-13T19:53:07.747Z,35.67
2022-10-13T19:55:42.996Z,38.90
2022-10-13T19:58:17.532Z,29.65
2022-10-13T20:00:51.075Z,33.28
2022-10-13T20:03:24.881Z,34.30
2022-10-13T20:05:59.884Z,32.25
2022-10-13T20:08:34.410Z,33.75
2022-10-13T20:11:08.938Z,35.03
2022-10-13T20:13:44.206Z,42.28
2022-10-13T20:16:21.216Z,35.75
2022-10-13T20:18:56.929Z,38.65
2022-10-13T20:21:31.961Z,34.42
2022-10-13T20:24:06.282Z,35.10
2022-10-13T20:26:40.830Z,34.53
2022-10-13T20:29:14.690Z,43.85
2022-10-13T20:31:48.230Z,37.15
2022-10-13T20:34:21.931Z,34.90
2022-10-13T20:36:56.890Z,33.65
2022-10-13T20:39:30.642Z,37.65
2022-10-13T20:42:04.549Z,38.15
2022-10-13T20:44:38.554Z,36.55
2022-10-13T20:47:12.086Z,43.22
2022-10-13T20:49:45.884Z,38.35
2022-10-13T20:52:20.779Z,33.67
2022-10-13T20:54:54.520Z,42.72
2022-10-13T20:57:27.992Z,42.97
2022-10-13T21:00:01.779Z,41.67
2022-10-13T21:02:35.633Z,41.38
2022-10-13T21:05:09.675Z,37.80
2022-10-13T21:07:44.493Z,37.28
2022-10-13T21:10:18.438Z,38.72
2022-10-13T21:12:51.948Z,37.47
2022-10-13T21:15:25.617Z,39.42
2022-10-13T21:17:59.160Z,37.75
2022-10-13T21:20:34.200Z,45.25
2022-10-13T21:23:09.890Z,39.00
2022-10-13T21:25:43.601Z,41.80
2022-10-13T21:28:17.207Z,44.65
2022-10-13T21:31:00.982Z,38.22
2022-10-13T21:33:35.804Z,41.08
2022-10-13T21:36:11.181Z,37.45
2022-10-13T21:38:47.640Z,35.35
2022-10-13T21:41:21.944Z,41.15
2022-10-13T21:43:55.558Z,44.08
2022-10-13T21:46:31.209Z,38.55
2022-10-13T21:49:06.650Z,33.67
2022-10-13T21:51:41.416Z,37.03
2022-10-13T21:54:16.717Z,31.08
2022-10-13T21:56:50.706Z,35.28
2022-10-13T21:59:24.268Z,32.95
2022-10-13T22:01:58.129Z,39.63
2022-10-13T22:04:31.651Z,32.47
2022-10-13T22:07:05.748Z,31.38
2022-10-13T22:09:41.134Z,36.92
2022-10-13T22:12:14.918Z,32.88
2022-10-13T22:14:48.739Z,33.88
2022-10-13T22:17:22.973Z,40.10
2022-10-13T22:19:56.691Z,35.65
2022-10-13T22:22:31.134Z,36.08
2022-10-13T22:25:07.539Z,35.60
2022-10-13T22:27:41.450Z,38.08
2022-10-13T22:30:15.305Z,36.97
2022-10-13T22:32:49.395Z,34.63
2022-10-13T22:35:22.913Z,35.85
2022-10-13T22:37:57.072Z,43.75
2022-10-13T22:40:33.139Z,41.10
2022-10-13T22:43:07.042Z,36.60
2022-10-13T22:45:40.747Z,33.20
2022-10-13T22:48:14.522Z,39.25
2022-10-13T22:50:48.040Z,33.53
2022-10-13T22:53:22.242Z,39.42
2022-10-13T22:55:57.204Z,36.92
2022-10-13T22:58:31.247Z,33.63
2022-10-13T23:01:08.876Z,36.13
2022-10-13T23:03:43.034Z,36.78
2022-10-13T23:06:18.959Z,37.20
2022-10-13T23:08:53.113Z,34.60
2022-10-13T23:11:28.259Z,35.67
2022-10-13T23:14:02.509Z,35.45
2022-10-13T23:16:36.277Z,36.15
2022-10-13T23:19:10.098Z,41.47
2022-10-13T23:21:43.603Z,36.28
2022-10-13T23:24:17.595Z,33.53
2022-10-13T23:26:52.481Z,39.60
2022-10-13T23:29:26.643Z,36.20
2022-10-13T23:32:00.156Z,40.33
2022-10-13T23:34:33.942Z,36.70
2022-10-13T23:37:07.636Z,46.15
2022-10-13T23:39:41.453Z,43.72
2022-10-13T23:42:16.413Z,46.50
2022-10-13T23:44:50.159Z,40.72
2022-10-13T23:47:24.049Z,38.92
2022-10-13T23:49:58.064Z,48.92
2022-10-13T23:52:31.673Z,43.90
2022-10-13T23:55:06.938Z,46.78
2022-10-13T23:57:41.941Z,41.47
